sensor_id;sensor_type;location;lat;lon;timestamp;temperature;humidity
44607;DHT22;30315;46.072;14.474;2023-01-08T00:00:16;11.00;83.60
44607;DHT22;30315;46.072;14.474;2023-01-08T00:02:43;11.00;83.40
44607;DHT22;30315;46.072;14.474;2023-01-08T00:05:10;11.00;83.50
44607;DHT22;30315;46.072;14.474;2023-01-08T00:07:37;11.10;83.30
44607;DHT22;30315;46.072;14.474;2023-01-08T00:10:04;11.10;83.40
44607;DHT22;30315;46.072;14.474;2023-01-08T00:12:32;11.10;83.30
44607;DHT22;30315;46.072;14.474;2023-01-08T00:15:00;11.00;82.90
44607;DHT22;30315;46.072;14.474;2023-01-08T00:17:27;11.00;83.00
44607;DHT22;30315;46.072;14.474;2023-01-08T00:19:56;11.00;83.20
44607;DHT22;30315;46.072;14.474;2023-01-08T00:22:27;11.00;83.40
44607;DHT22;30315;46.072;14.474;2023-01-08T00:24:54;11.00;83.10
44607;DHT22;30315;46.072;14.474;2023-01-08T00:27:21;11.00;83.30
44607;DHT22;30315;46.072;14.474;2023-01-08T00:29:48;11.00;83.30
44607;DHT22;30315;46.072;14.474;2023-01-08T00:32:15;11.10;83.10
44607;DHT22;30315;46.072;14.474;2023-01-08T00:34:42;11.10;82.90
44607;DHT22;30315;46.072;14.474;2023-01-08T00:37:09;11.10;82.70
44607;DHT22;30315;46.072;14.474;2023-01-08T00:39:36;11.10;82.90
44607;DHT22;30315;46.072;14.474;2023-01-08T00:42:03;11.10;82.70
44607;DHT22;30315;46.072;14.474;2023-01-08T00:44:30;11.00;82.40
44607;DHT22;30315;46.072;14.474;2023-01-08T00:46:57;11.10;82.70
44607;DHT22;30315;46.072;14.474;2023-01-08T00:49:24;11.10;82.60
44607;DHT22;30315;46.072;14.474;2023-01-08T00:51:51;11.10;82.50
44607;DHT22;30315;46.072;14.474;2023-01-08T00:54:18;11.10;82.60
44607;DHT22;30315;46.072;14.474;2023-01-08T00:56:45;11.10;82.70
44607;DHT22;30315;46.072;14.474;2023-01-08T00:59:12;11.10;82.70
44607;DHT22;30315;46.072;14.474;2023-01-08T01:01:39;11.00;82.60
44607;DHT22;30315;46.072;14.474;2023-01-08T01:04:06;10.90;83.00
44607;DHT22;30315;46.072;14.474;2023-01-08T01:06:34;10.90;83.20
44607;DHT22;30315;46.072;14.474;2023-01-08T01:09:01;11.00;83.30
44607;DHT22;30315;46.072;14.474;2023-01-08T01:11:28;11.00;83.40
44607;DHT22;30315;46.072;14.474;2023-01-08T01:13:55;11.00;83.60
44607;DHT22;30315;46.072;14.474;2023-01-08T01:16:23;11.00;83.60
44607;DHT22;30315;46.072;14.474;2023-01-08T01:18:50;11.00;83.60
44607;DHT22;30315;46.072;14.474;2023-01-08T01:21:22;11.00;83.70
44607;DHT22;30315;46.072;14.474;2023-01-08T01:23:49;10.90;83.80
44607;DHT22;30315;46.072;14.474;2023-01-08T01:26:18;10.90;84.00
44607;DHT22;30315;46.072;14.474;2023-01-08T01:28:49;10.90;84.10
44607;DHT22;30315;46.072;14.474;2023-01-08T01:31:17;10.90;84.20
44607;DHT22;30315;46.072;14.474;2023-01-08T01:33:45;10.90;84.10
44607;DHT22;30315;46.072;14.474;2023-01-08T01:36:13;10.90;84.40
44607;DHT22;30315;46.072;14.474;2023-01-08T01:38:45;10.90;84.40
44607;DHT22;30315;46.072;14.474;2023-01-08T01:44:33;10.90;84.70
44607;DHT22;30315;46.072;14.474;2023-01-08T01:46:47;11.00;84.60
44607;DHT22;30315;46.072;14.474;2023-01-08T01:49:18;10.90;84.60
44607;DHT22;30315;46.072;14.474;2023-01-08T01:51:54;10.90;84.70
44607;DHT22;30315;46.072;14.474;2023-01-08T01:54:22;10.90;84.60
44607;DHT22;30315;46.072;14.474;2023-01-08T01:56:49;10.90;84.40
44607;DHT22;30315;46.072;14.474;2023-01-08T01:59:16;10.80;84.50
44607;DHT22;30315;46.072;14.474;2023-01-08T02:01:43;10.90;84.60
44607;DHT22;30315;46.072;14.474;2023-01-08T02:04:12;10.90;84.40
44607;DHT22;30315;46.072;14.474;2023-01-08T02:18:04;10.80;83.90
44607;DHT22;30315;46.072;14.474;2023-01-08T02:20:42;10.80;84.60
44607;DHT22;30315;46.072;14.474;2023-01-08T02:26:26;10.80;83.90
44607;DHT22;30315;46.072;14.474;2023-01-08T02:29:02;10.80;84.00
44607;DHT22;30315;46.072;14.474;2023-01-08T02:31:31;10.80;84.00
44607;DHT22;30315;46.072;14.474;2023-01-08T02:33:59;10.70;83.70
44607;DHT22;30315;46.072;14.474;2023-01-08T02:36:41;10.70;83.70
44607;DHT22;30315;46.072;14.474;2023-01-08T02:42:15;10.70;83.80
44607;DHT22;30315;46.072;14.474;2023-01-08T02:48:25;10.80;84.00
44607;DHT22;30315;46.072;14.474;2023-01-08T02:51:28;10.80;83.90
44607;DHT22;30315;46.072;14.474;2023-01-08T02:54:08;10.80;83.90
44607;DHT22;30315;46.072;14.474;2023-01-08T02:56:41;10.70;83.80
44607;DHT22;30315;46.072;14.474;2023-01-08T02:59:10;10.70;83.80
44607;DHT22;30315;46.072;14.474;2023-01-08T03:01:39;10.70;83.60
44607;DHT22;30315;46.072;14.474;2023-01-08T03:04:13;10.60;83.50
44607;DHT22;30315;46.072;14.474;2023-01-08T03:06:42;10.70;83.80
44607;DHT22;30315;46.072;14.474;2023-01-08T03:09:10;10.70;83.80
44607;DHT22;30315;46.072;14.474;2023-01-08T03:14:19;10.70;83.80
44607;DHT22;30315;46.072;14.474;2023-01-08T03:16:54;10.70;83.70
44607;DHT22;30315;46.072;14.474;2023-01-08T03:19:31;10.70;83.60
44607;DHT22;30315;46.072;14.474;2023-01-08T03:22:02;10.60;83.50
44607;DHT22;30315;46.072;14.474;2023-01-08T03:24:33;10.60;83.50
44607;DHT22;30315;46.072;14.474;2023-01-08T03:27:05;10.60;83.60
44607;DHT22;30315;46.072;14.474;2023-01-08T03:29:32;10.60;83.60
44607;DHT22;30315;46.072;14.474;2023-01-08T03:32:03;10.60;83.50
44607;DHT22;30315;46.072;14.474;2023-01-08T03:34:35;10.50;83.50
44607;DHT22;30315;46.072;14.474;2023-01-08T03:37:05;10.60;83.60
44607;DHT22;30315;46.072;14.474;2023-01-08T03:39:41;10.50;83.50
44607;DHT22;30315;46.072;14.474;2023-01-08T03:42:11;10.60;83.50
44607;DHT22;30315;46.072;14.474;2023-01-08T03:44:39;10.50;83.30
44607;DHT22;30315;46.072;14.474;2023-01-08T03:47:07;10.50;83.30
44607;DHT22;30315;46.072;14.474;2023-01-08T03:49:37;10.50;83.40
44607;DHT22;30315;46.072;14.474;2023-01-08T03:52:05;10.50;83.30
44607;DHT22;30315;46.072;14.474;2023-01-08T03:54:33;10.50;83.20
44607;DHT22;30315;46.072;14.474;2023-01-08T03:57:01;10.50;83.30
44607;DHT22;30315;46.072;14.474;2023-01-08T03:59:28;10.50;83.20
44607;DHT22;30315;46.072;14.474;2023-01-08T04:01:55;10.50;83.20
44607;DHT22;30315;46.072;14.474;2023-01-08T04:04:22;10.50;83.20
44607;DHT22;30315;46.072;14.474;2023-01-08T04:06:51;10.40;83.10
44607;DHT22;30315;46.072;14.474;2023-01-08T04:09:18;10.40;83.10
44607;DHT22;30315;46.072;14.474;2023-01-08T04:11:45;10.40;83.20
44607;DHT22;30315;46.072;14.474;2023-01-08T04:14:12;10.30;83.20
44607;DHT22;30315;46.072;14.474;2023-01-08T04:16:39;10.30;83.20
44607;DHT22;30315;46.072;14.474;2023-01-08T04:19:05;10.30;83.20
44607;DHT22;30315;46.072;14.474;2023-01-08T04:21:32;10.30;83.20
44607;DHT22;30315;46.072;14.474;2023-01-08T04:23:59;10.30;83.20
44607;DHT22;30315;46.072;14.474;2023-01-08T04:26:26;10.30;83.30
44607;DHT22;30315;46.072;14.474;2023-01-08T04:28:53;10.30;83.20
44607;DHT22;30315;46.072;14.474;2023-01-08T04:31:20;10.30;83.20
44607;DHT22;30315;46.072;14.474;2023-01-08T04:33:47;10.30;83.20
44607;DHT22;30315;46.072;14.474;2023-01-08T04:36:14;10.30;83.20
44607;DHT22;30315;46.072;14.474;2023-01-08T04:38:41;10.30;83.20
44607;DHT22;30315;46.072;14.474;2023-01-08T04:41:08;10.30;83.00
44607;DHT22;30315;46.072;14.474;2023-01-08T04:43:35;10.20;82.90
44607;DHT22;30315;46.072;14.474;2023-01-08T04:46:03;10.30;83.20
44607;DHT22;30315;46.072;14.474;2023-01-08T04:48:33;10.30;83.20
44607;DHT22;30315;46.072;14.474;2023-01-08T04:51:02;10.30;83.20
44607;DHT22;30315;46.072;14.474;2023-01-08T04:53:32;10.30;83.10
44607;DHT22;30315;46.072;14.474;2023-01-08T04:56:07;10.30;83.10
44607;DHT22;30315;46.072;14.474;2023-01-08T04:58:35;10.30;82.90
44607;DHT22;30315;46.072;14.474;2023-01-08T05:01:20;10.30;83.00
44607;DHT22;30315;46.072;14.474;2023-01-08T05:03:55;10.40;83.10
44607;DHT22;30315;46.072;14.474;2023-01-08T05:06:22;10.40;83.00
44607;DHT22;30315;46.072;14.474;2023-01-08T05:08:49;10.40;83.10
44607;DHT22;30315;46.072;14.474;2023-01-08T05:11:16;10.50;82.90
44607;DHT22;30315;46.072;14.474;2023-01-08T05:13:47;10.50;82.60
44607;DHT22;30315;46.072;14.474;2023-01-08T05:16:15;10.50;82.70
44607;DHT22;30315;46.072;14.474;2023-01-08T05:18:43;10.50;82.60
44607;DHT22;30315;46.072;14.474;2023-01-08T05:21:10;10.50;82.20
44607;DHT22;30315;46.072;14.474;2023-01-08T05:23:37;10.50;82.30
44607;DHT22;30315;46.072;14.474;2023-01-08T05:26:05;10.50;82.10
44607;DHT22;30315;46.072;14.474;2023-01-08T05:28:33;10.50;82.10
44607;DHT22;30315;46.072;14.474;2023-01-08T05:30:59;10.60;82.00
44607;DHT22;30315;46.072;14.474;2023-01-08T05:33:27;10.60;82.00
44607;DHT22;30315;46.072;14.474;2023-01-08T05:35:53;10.60;82.00
44607;DHT22;30315;46.072;14.474;2023-01-08T05:38:21;10.50;81.70
44607;DHT22;30315;46.072;14.474;2023-01-08T05:40:51;10.50;81.90
44607;DHT22;30315;46.072;14.474;2023-01-08T05:43:19;10.60;81.80
44607;DHT22;30315;46.072;14.474;2023-01-08T05:45:45;10.60;81.80
44607;DHT22;30315;46.072;14.474;2023-01-08T05:48:12;10.60;81.70
44607;DHT22;30315;46.072;14.474;2023-01-08T05:50:39;10.60;81.10
44607;DHT22;30315;46.072;14.474;2023-01-08T05:53:07;10.60;81.30
44607;DHT22;30315;46.072;14.474;2023-01-08T05:55:34;10.60;81.10
44607;DHT22;30315;46.072;14.474;2023-01-08T05:58:05;10.70;81.20
44607;DHT22;30315;46.072;14.474;2023-01-08T06:00:33;10.70;81.20
44607;DHT22;30315;46.072;14.474;2023-01-08T06:03:00;10.70;80.80
44607;DHT22;30315;46.072;14.474;2023-01-08T06:05:29;10.70;80.90
44607;DHT22;30315;46.072;14.474;2023-01-08T06:07:57;10.80;80.90
44607;DHT22;30315;46.072;14.474;2023-01-08T06:10:25;10.80;80.70
44607;DHT22;30315;46.072;14.474;2023-01-08T06:12:52;10.80;80.60
44607;DHT22;30315;46.072;14.474;2023-01-08T06:15:19;10.80;81.60
44607;DHT22;30315;46.072;14.474;2023-01-08T06:17:46;10.80;80.80
44607;DHT22;30315;46.072;14.474;2023-01-08T06:20:12;10.80;80.80
44607;DHT22;30315;46.072;14.474;2023-01-08T06:22:39;10.80;80.80
44607;DHT22;30315;46.072;14.474;2023-01-08T06:25:06;10.80;80.80
44607;DHT22;30315;46.072;14.474;2023-01-08T06:27:33;10.80;80.90
44607;DHT22;30315;46.072;14.474;2023-01-08T06:30:00;10.80;80.90
44607;DHT22;30315;46.072;14.474;2023-01-08T06:32:27;10.80;81.70
44607;DHT22;30315;46.072;14.474;2023-01-08T06:34:54;10.80;81.00
44607;DHT22;30315;46.072;14.474;2023-01-08T06:37:20;10.80;81.10
44607;DHT22;30315;46.072;14.474;2023-01-08T06:39:47;10.70;81.20
44607;DHT22;30315;46.072;14.474;2023-01-08T06:42:14;10.80;81.50
44607;DHT22;30315;46.072;14.474;2023-01-08T06:44:41;10.80;81.40
44607;DHT22;30315;46.072;14.474;2023-01-08T06:47:08;10.70;81.40
44607;DHT22;30315;46.072;14.474;2023-01-08T06:49:35;10.80;81.70
44607;DHT22;30315;46.072;14.474;2023-01-08T06:52:02;10.70;81.60
44607;DHT22;30315;46.072;14.474;2023-01-08T06:54:29;10.70;81.70
44607;DHT22;30315;46.072;14.474;2023-01-08T06:56:55;10.70;81.70
44607;DHT22;30315;46.072;14.474;2023-01-08T06:59:22;10.70;81.90
44607;DHT22;30315;46.072;14.474;2023-01-08T07:01:49;10.70;81.90
44607;DHT22;30315;46.072;14.474;2023-01-08T07:04:17;10.70;81.90
44607;DHT22;30315;46.072;14.474;2023-01-08T07:06:44;10.70;82.00
44607;DHT22;30315;46.072;14.474;2023-01-08T07:09:13;11.00;82.00
44607;DHT22;30315;46.072;14.474;2023-01-08T07:11:41;10.70;81.90
44607;DHT22;30315;46.072;14.474;2023-01-08T07:14:08;10.70;81.80
44607;DHT22;30315;46.072;14.474;2023-01-08T07:16:35;10.80;81.90
44607;DHT22;30315;46.072;14.474;2023-01-08T07:19:02;10.80;82.00
44607;DHT22;30315;46.072;14.474;2023-01-08T07:21:29;10.80;81.80
44607;DHT22;30315;46.072;14.474;2023-01-08T07:23:56;10.90;82.00
44607;DHT22;30315;46.072;14.474;2023-01-08T07:26:25;10.90;81.70
44607;DHT22;30315;46.072;14.474;2023-01-08T07:28:52;11.00;81.70
44607;DHT22;30315;46.072;14.474;2023-01-08T07:31:19;11.00;81.50
44607;DHT22;30315;46.072;14.474;2023-01-08T07:33:46;11.00;81.40
44607;DHT22;30315;46.072;14.474;2023-01-08T07:36:13;11.00;81.30
44607;DHT22;30315;46.072;14.474;2023-01-08T07:38:41;11.10;81.30
44607;DHT22;30315;46.072;14.474;2023-01-08T07:41:08;11.10;81.20
44607;DHT22;30315;46.072;14.474;2023-01-08T07:43:35;11.10;81.30
44607;DHT22;30315;46.072;14.474;2023-01-08T07:46:02;11.20;81.40
44607;DHT22;30315;46.072;14.474;2023-01-08T07:48:30;11.20;81.20
44607;DHT22;30315;46.072;14.474;2023-01-08T07:51:04;11.20;80.90
44607;DHT22;30315;46.072;14.474;2023-01-08T07:53:32;11.30;80.90
44607;DHT22;30315;46.072;14.474;2023-01-08T07:56:03;11.30;80.60
44607;DHT22;30315;46.072;14.474;2023-01-08T07:58:30;11.30;80.50
44607;DHT22;30315;46.072;14.474;2023-01-08T08:00:57;11.30;80.60
44607;DHT22;30315;46.072;14.474;2023-01-08T08:03:25;11.30;80.40
44607;DHT22;30315;46.072;14.474;2023-01-08T08:05:52;11.30;80.60
44607;DHT22;30315;46.072;14.474;2023-01-08T08:08:19;11.40;80.50
44607;DHT22;30315;46.072;14.474;2023-01-08T08:10:46;11.30;80.30
44607;DHT22;30315;46.072;14.474;2023-01-08T08:13:14;11.40;81.00
44607;DHT22;30315;46.072;14.474;2023-01-08T08:15:41;11.40;80.90
44607;DHT22;30315;46.072;14.474;2023-01-08T08:18:08;11.40;80.60
44607;DHT22;30315;46.072;14.474;2023-01-08T08:20:36;11.40;80.50
44607;DHT22;30315;46.072;14.474;2023-01-08T08:23:11;11.30;80.60
44607;DHT22;30315;46.072;14.474;2023-01-08T08:25:40;11.40;80.70
44607;DHT22;30315;46.072;14.474;2023-01-08T08:28:09;11.40;80.80
44607;DHT22;30315;46.072;14.474;2023-01-08T08:30:37;11.40;80.90
44607;DHT22;30315;46.072;14.474;2023-01-08T08:33:07;11.40;80.80
44607;DHT22;30315;46.072;14.474;2023-01-08T08:35:34;11.40;80.70
44607;DHT22;30315;46.072;14.474;2023-01-08T08:38:01;11.40;80.70
44607;DHT22;30315;46.072;14.474;2023-01-08T08:40:28;11.40;80.80
44607;DHT22;30315;46.072;14.474;2023-01-08T08:43:01;11.40;81.10
44607;DHT22;30315;46.072;14.474;2023-01-08T08:45:28;11.30;81.10
44607;DHT22;30315;46.072;14.474;2023-01-08T08:47:55;11.40;81.00
44607;DHT22;30315;46.072;14.474;2023-01-08T08:50:22;11.30;80.90
44607;DHT22;30315;46.072;14.474;2023-01-08T08:52:49;11.30;81.00
44607;DHT22;30315;46.072;14.474;2023-01-08T08:55:16;11.30;81.00
44607;DHT22;30315;46.072;14.474;2023-01-08T08:57:44;11.40;81.00
44607;DHT22;30315;46.072;14.474;2023-01-08T09:00:13;11.30;81.10
44607;DHT22;30315;46.072;14.474;2023-01-08T09:02:40;11.40;81.30
44607;DHT22;30315;46.072;14.474;2023-01-08T09:05:07;11.30;81.30
44607;DHT22;30315;46.072;14.474;2023-01-08T09:07:35;11.40;81.50
44607;DHT22;30315;46.072;14.474;2023-01-08T09:10:03;11.40;81.60
44607;DHT22;30315;46.072;14.474;2023-01-08T09:12:30;11.30;81.70
44607;DHT22;30315;46.072;14.474;2023-01-08T09:14:57;11.30;82.00
44607;DHT22;30315;46.072;14.474;2023-01-08T09:17:24;11.30;82.20
44607;DHT22;30315;46.072;14.474;2023-01-08T09:19:51;11.30;82.40
44607;DHT22;30315;46.072;14.474;2023-01-08T09:22:19;11.20;82.40
44607;DHT22;30315;46.072;14.474;2023-01-08T09:24:46;11.30;82.70
44607;DHT22;30315;46.072;14.474;2023-01-08T09:27:13;11.30;82.70
44607;DHT22;30315;46.072;14.474;2023-01-08T09:29:40;11.30;82.90
44607;DHT22;30315;46.072;14.474;2023-01-08T09:32:07;11.30;83.10
44607;DHT22;30315;46.072;14.474;2023-01-08T09:34:34;11.30;83.30
44607;DHT22;30315;46.072;14.474;2023-01-08T09:37:04;11.30;83.30
44607;DHT22;30315;46.072;14.474;2023-01-08T09:39:32;11.40;83.80
44607;DHT22;30315;46.072;14.474;2023-01-08T09:42:03;11.30;84.00
44607;DHT22;30315;46.072;14.474;2023-01-08T09:44:35;11.30;84.40
44607;DHT22;30315;46.072;14.474;2023-01-08T09:47:05;11.30;84.60
44607;DHT22;30315;46.072;14.474;2023-01-08T09:49:38;11.30;84.90
44607;DHT22;30315;46.072;14.474;2023-01-08T09:52:10;11.30;85.00
44607;DHT22;30315;46.072;14.474;2023-01-08T09:54:39;11.30;85.30
44607;DHT22;30315;46.072;14.474;2023-01-08T09:57:13;11.40;85.50
44607;DHT22;30315;46.072;14.474;2023-01-08T09:59:42;11.40;85.50
44607;DHT22;30315;46.072;14.474;2023-01-08T10:02:21;11.50;85.50
44607;DHT22;30315;46.072;14.474;2023-01-08T10:04:58;11.60;85.40
44607;DHT22;30315;46.072;14.474;2023-01-08T10:07:27;11.80;85.70
44607;DHT22;30315;46.072;14.474;2023-01-08T10:09:54;11.90;85.90
44607;DHT22;30315;46.072;14.474;2023-01-08T10:12:30;11.90;84.90
44607;DHT22;30315;46.072;14.474;2023-01-08T10:15:03;12.00;84.90
44607;DHT22;30315;46.072;14.474;2023-01-08T10:17:40;12.20;84.80
44607;DHT22;30315;46.072;14.474;2023-01-08T10:20:13;12.20;84.40
44607;DHT22;30315;46.072;14.474;2023-01-08T10:22:40;12.30;84.10
44607;DHT22;30315;46.072;14.474;2023-01-08T10:25:13;12.30;83.70
44607;DHT22;30315;46.072;14.474;2023-01-08T10:28:00;12.30;83.00
44607;DHT22;30315;46.072;14.474;2023-01-08T10:30:32;12.20;82.80
44607;DHT22;30315;46.072;14.474;2023-01-08T10:33:13;12.20;83.00
44607;DHT22;30315;46.072;14.474;2023-01-08T10:35:57;12.20;83.20
44607;DHT22;30315;46.072;14.474;2023-01-08T10:38:35;12.30;83.10
44607;DHT22;30315;46.072;14.474;2023-01-08T10:41:11;12.30;83.00
44607;DHT22;30315;46.072;14.474;2023-01-08T10:44:05;12.30;83.10
44607;DHT22;30315;46.072;14.474;2023-01-08T10:46:44;12.30;83.10
44607;DHT22;30315;46.072;14.474;2023-01-08T10:51:51;12.50;83.40
44607;DHT22;30315;46.072;14.474;2023-01-08T10:54:37;12.60;86.50
44607;DHT22;30315;46.072;14.474;2023-01-08T10:57:25;12.80;89.80
44607;DHT22;30315;46.072;14.474;2023-01-08T10:59:53;12.90;85.50
44607;DHT22;30315;46.072;14.474;2023-01-08T11:02:31;13.00;85.70
44607;DHT22;30315;46.072;14.474;2023-01-08T11:04:59;12.80;87.00
44607;DHT22;30315;46.072;14.474;2023-01-08T11:07:27;13.10;85.00
44607;DHT22;30315;46.072;14.474;2023-01-08T11:09:55;13.20;84.80
44607;DHT22;30315;46.072;14.474;2023-01-08T11:12:37;13.20;83.70
44607;DHT22;30315;46.072;14.474;2023-01-08T11:17:43;13.00;83.30
44607;DHT22;30315;46.072;14.474;2023-01-08T11:20:28;12.90;83.50
44607;DHT22;30315;46.072;14.474;2023-01-08T11:23:25;12.80;83.80
44607;DHT22;30315;46.072;14.474;2023-01-08T11:31:18;12.50;84.80
44607;DHT22;30315;46.072;14.474;2023-01-08T11:33:51;12.50;85.40
44607;DHT22;30315;46.072;14.474;2023-01-08T11:36:26;12.50;86.10
44607;DHT22;30315;46.072;14.474;2023-01-08T11:38:56;12.60;86.00
44607;DHT22;30315;46.072;14.474;2023-01-08T11:41:33;12.60;85.80
44607;DHT22;30315;46.072;14.474;2023-01-08T11:44:21;12.50;85.80
44607;DHT22;30315;46.072;14.474;2023-01-08T11:47:02;12.60;85.90
44607;DHT22;30315;46.072;14.474;2023-01-08T11:50:12;12.50;86.30
44607;DHT22;30315;46.072;14.474;2023-01-08T11:52:44;12.50;86.70
44607;DHT22;30315;46.072;14.474;2023-01-08T11:58:21;12.60;86.50
44607;DHT22;30315;46.072;14.474;2023-01-08T12:03:53;12.70;86.30
44607;DHT22;30315;46.072;14.474;2023-01-08T12:06:46;12.80;85.90
44607;DHT22;30315;46.072;14.474;2023-01-08T12:09:43;12.90;85.50
44607;DHT22;30315;46.072;14.474;2023-01-08T12:17:35;12.90;84.80
44607;DHT22;30315;46.072;14.474;2023-01-08T12:20:20;12.80;84.60
44607;DHT22;30315;46.072;14.474;2023-01-08T12:36:23;13.00;84.40
44607;DHT22;30315;46.072;14.474;2023-01-08T12:38:57;13.00;84.30
44607;DHT22;30315;46.072;14.474;2023-01-08T12:41:25;13.00;84.10
44607;DHT22;30315;46.072;14.474;2023-01-08T12:44:03;13.00;84.20
44607;DHT22;30315;46.072;14.474;2023-01-08T12:46:32;13.00;84.10
44607;DHT22;30315;46.072;14.474;2023-01-08T12:49:01;13.00;84.10
44607;DHT22;30315;46.072;14.474;2023-01-08T13:00:11;12.90;84.80
44607;DHT22;30315;46.072;14.474;2023-01-08T13:02:57;13.00;85.10
44607;DHT22;30315;46.072;14.474;2023-01-08T13:08:40;13.00;85.30
44607;DHT22;30315;46.072;14.474;2023-01-08T13:10:51;13.00;85.70
44607;DHT22;30315;46.072;14.474;2023-01-08T13:13:34;12.90;85.90
44607;DHT22;30315;46.072;14.474;2023-01-08T13:16:19;13.00;86.00
44607;DHT22;30315;46.072;14.474;2023-01-08T13:18:58;12.90;86.70
44607;DHT22;30315;46.072;14.474;2023-01-08T13:21:31;12.90;87.30
44607;DHT22;30315;46.072;14.474;2023-01-08T13:26:49;13.00;88.10
44607;DHT22;30315;46.072;14.474;2023-01-08T13:29:34;12.90;88.10
44607;DHT22;30315;46.072;14.474;2023-01-08T13:32:03;13.00;88.30
44607;DHT22;30315;46.072;14.474;2023-01-08T13:34:39;13.00;89.20
44607;DHT22;30315;46.072;14.474;2023-01-08T13:37:08;13.00;89.10
44607;DHT22;30315;46.072;14.474;2023-01-08T13:39:52;13.00;88.70
44607;DHT22;30315;46.072;14.474;2023-01-08T13:42:25;13.00;88.20
44607;DHT22;30315;46.072;14.474;2023-01-08T13:44:59;13.00;88.20
44607;DHT22;30315;46.072;14.474;2023-01-08T13:47:31;13.00;88.30
44607;DHT22;30315;46.072;14.474;2023-01-08T13:50:01;13.00;88.00
44607;DHT22;30315;46.072;14.474;2023-01-08T13:57:48;13.00;88.00
44607;DHT22;30315;46.072;14.474;2023-01-08T14:00:23;13.00;87.80
44607;DHT22;30315;46.072;14.474;2023-01-08T14:02:51;12.90;87.50
44607;DHT22;30315;46.072;14.474;2023-01-08T14:07:52;13.00;87.70
44607;DHT22;30315;46.072;14.474;2023-01-08T14:10:20;13.00;87.70
44607;DHT22;30315;46.072;14.474;2023-01-08T14:12:48;13.00;87.60
44607;DHT22;30315;46.072;14.474;2023-01-08T14:15:24;13.10;87.50
44607;DHT22;30315;46.072;14.474;2023-01-08T14:17:53;13.10;87.30
44607;DHT22;30315;46.072;14.474;2023-01-08T14:20:42;13.10;87.30
44607;DHT22;30315;46.072;14.474;2023-01-08T14:23:15;13.10;87.20
44607;DHT22;30315;46.072;14.474;2023-01-08T14:25:47;13.00;86.90
44607;DHT22;30315;46.072;14.474;2023-01-08T14:28:19;13.10;87.10
44607;DHT22;30315;46.072;14.474;2023-01-08T14:30:54;13.10;86.90
44607;DHT22;30315;46.072;14.474;2023-01-08T14:33:32;13.10;86.90
44607;DHT22;30315;46.072;14.474;2023-01-08T14:36:00;13.10;86.80
44607;DHT22;30315;46.072;14.474;2023-01-08T14:38:28;13.10;86.70
44607;DHT22;30315;46.072;14.474;2023-01-08T14:41:06;13.20;86.70
44607;DHT22;30315;46.072;14.474;2023-01-08T14:43:40;13.20;86.70
44607;DHT22;30315;46.072;14.474;2023-01-08T14:46:23;13.10;86.50
44607;DHT22;30315;46.072;14.474;2023-01-08T14:48:56;13.10;86.40
44607;DHT22;30315;46.072;14.474;2023-01-08T14:51:25;13.20;86.60
44607;DHT22;30315;46.072;14.474;2023-01-08T14:53:58;13.10;86.50
44607;DHT22;30315;46.072;14.474;2023-01-08T14:56:32;13.10;86.60
44607;DHT22;30315;46.072;14.474;2023-01-08T14:58:59;13.10;86.70
44607;DHT22;30315;46.072;14.474;2023-01-08T15:01:32;13.40;87.10
44607;DHT22;30315;46.072;14.474;2023-01-08T15:04:18;13.10;87.00
44607;DHT22;30315;46.072;14.474;2023-01-08T15:06:49;13.10;87.20
44607;DHT22;30315;46.072;14.474;2023-01-08T15:09:29;13.10;87.30
44607;DHT22;30315;46.072;14.474;2023-01-08T15:11:57;13.10;87.60
44607;DHT22;30315;46.072;14.474;2023-01-08T15:14:26;13.10;87.40
44607;DHT22;30315;46.072;14.474;2023-01-08T15:16:56;13.00;87.70
44607;DHT22;30315;46.072;14.474;2023-01-08T15:19:33;13.00;88.10
44607;DHT22;30315;46.072;14.474;2023-01-08T15:22:14;13.00;88.20
44607;DHT22;30315;46.072;14.474;2023-01-08T15:24:42;13.00;88.40
44607;DHT22;30315;46.072;14.474;2023-01-08T15:27:17;13.00;88.50
44607;DHT22;30315;46.072;14.474;2023-01-08T15:29:50;13.00;88.50
44607;DHT22;30315;46.072;14.474;2023-01-08T15:32:22;12.90;88.60
44607;DHT22;30315;46.072;14.474;2023-01-08T15:34:53;13.00;88.80
44607;DHT22;30315;46.072;14.474;2023-01-08T15:37:20;13.00;88.70
44607;DHT22;30315;46.072;14.474;2023-01-08T15:39:47;13.00;88.50
44607;DHT22;30315;46.072;14.474;2023-01-08T15:42:27;13.00;88.60
44607;DHT22;30315;46.072;14.474;2023-01-08T15:45:20;12.90;88.40
44607;DHT22;30315;46.072;14.474;2023-01-08T15:47:47;13.00;88.60
44607;DHT22;30315;46.072;14.474;2023-01-08T15:50:14;12.90;88.70
44607;DHT22;30315;46.072;14.474;2023-01-08T15:52:42;12.90;88.80
44607;DHT22;30315;46.072;14.474;2023-01-08T15:55:16;12.90;88.80
44607;DHT22;30315;46.072;14.474;2023-01-08T15:57:43;12.90;89.60
44607;DHT22;30315;46.072;14.474;2023-01-08T16:00:15;12.90;89.00
44607;DHT22;30315;46.072;14.474;2023-01-08T16:02:47;13.00;89.30
44607;DHT22;30315;46.072;14.474;2023-01-08T16:05:16;13.00;89.40
44607;DHT22;30315;46.072;14.474;2023-01-08T16:07:43;13.00;89.50
44607;DHT22;30315;46.072;14.474;2023-01-08T16:10:13;13.00;89.60
44607;DHT22;30315;46.072;14.474;2023-01-08T16:12:40;13.00;89.50
44607;DHT22;30315;46.072;14.474;2023-01-08T16:15:10;12.90;89.50
44607;DHT22;30315;46.072;14.474;2023-01-08T16:17:37;12.90;89.50
44607;DHT22;30315;46.072;14.474;2023-01-08T16:20:05;12.90;89.70
44607;DHT22;30315;46.072;14.474;2023-01-08T16:22:32;12.90;90.00
44607;DHT22;30315;46.072;14.474;2023-01-08T16:24:59;12.90;90.10
44607;DHT22;30315;46.072;14.474;2023-01-08T16:27:26;12.90;90.20
44607;DHT22;30315;46.072;14.474;2023-01-08T16:29:53;12.90;90.30
44607;DHT22;30315;46.072;14.474;2023-01-08T16:32:20;13.10;90.40
44607;DHT22;30315;46.072;14.474;2023-01-08T16:34:47;12.90;90.40
44607;DHT22;30315;46.072;14.474;2023-01-08T16:37:14;12.90;90.90
44607;DHT22;30315;46.072;14.474;2023-01-08T16:39:41;12.90;90.60
44607;DHT22;30315;46.072;14.474;2023-01-08T16:42:08;12.90;90.70
44607;DHT22;30315;46.072;14.474;2023-01-08T16:44:38;12.90;90.80
44607;DHT22;30315;46.072;14.474;2023-01-08T16:47:05;12.80;90.80
44607;DHT22;30315;46.072;14.474;2023-01-08T16:49:32;12.80;90.90
44607;DHT22;30315;46.072;14.474;2023-01-08T16:51:59;12.80;90.90
44607;DHT22;30315;46.072;14.474;2023-01-08T16:54:26;12.80;91.00
44607;DHT22;30315;46.072;14.474;2023-01-08T16:56:53;12.70;91.00
44607;DHT22;30315;46.072;14.474;2023-01-08T16:59:20;12.70;91.10